Main page
METAR-TAF:

METAR-TAF

Airports :

Tokyo-Haneda, Japan

Haneda Airport

latitude: 35-33N, longitude: 139-47E, elevation: 5 m

Current weather observation

The report was made 22 minutes ago, at 11:30 UTC
Wind 6 kt from the West/Northwest
Temperature 7°C
Humidity 57%
Pressure 1015 hPa
Visibility 10 km or more
Few clouds at a height of 4000 ft

METAR: RJTT 201130Z 30006KT 9999 FEW040 07/M01 Q1015 NOSIG RMK 1SC040 A2997

Time: 20:52 (11:52 UTC)

Forecast

The report was made 40 minutes ago, at 11:12 UTC
Forecast valid from 20 at 12 UTC to 21 at 18 UTC
Wind 10 kt from the West/Northwest
Visibility 10 km or more
Few clouds at a height of 3000 ft
Becoming
from 20 at 17 UTC to 20 at 19 UTC
Wind 20 kt from the North/Northwest
Temporary
from 20 at 18 UTC to 20 at 22 UTC
Wind 24 kt from the North/Northwest with gusts up to 34 kt
Becoming
from 21 at 06 UTC to 21 at 09 UTC
Wind 8 kt from the North

TAF: RJTT 201112Z 2012/2118 30010KT 9999 FEW030 BECMG 2017/2019 33020KT TEMPO 2018/2022 33024G34KT BECMG 2106/2109 36008KT

Weather observations and forecasts of more than 4000 airports (METAR and TAF reports).

The available stations are represented by yellow and red dots on the map.

Hover mouse over dot to see the name of the station.

Then click to see weather observations and forecasts.

To change the map : click on the green buttons with a black cross to zoom in, on the green button with a dash to zoom out, or on the green arrows for adjacent maps.


METAR-TAF: